Time;durP1;ratioP1;P1;durP2;ratioP2;P2;SDS_P1;SDS_P2;PMS_P1;PMS_P2;Temp;Humidity;BMP_temperature;BMP_pressure;BME280_temperature;BME280_humidity;BME280_pressure;Samples;Min_cycle;Max_cycle;Signal;HPM_P1;HPM_P2
2022/10/31 00:01:35;;;;;;;45.10;28.87;;;;;;;8.66;79.24;100630.03;2211326;80;29317;-59
2022/10/31 00:04:37;;;;;;;48.90;31.30;;;;;;;8.63;79.28;100626.13;2211125;80;27992;-59
2022/10/31 00:07:38;;;;;;;50.85;32.28;;;;;;;8.62;79.28;100633.73;2211175;80;29082;-59
2022/10/31 00:10:41;;;;;;;47.30;30.23;;;;;;;8.59;79.30;100633.87;2211198;80;31375;-65
2022/10/31 00:13:42;;;;;;;49.40;29.90;;;;;;;8.57;79.38;100629.04;2211075;80;32980;-60
2022/10/31 00:16:44;;;;;;;44.88;29.65;;;;;;;8.55;79.34;100632.23;2209936;80;29385;-59
2022/10/31 00:19:45;;;;;;;57.15;32.28;;;;;;;8.52;79.39;100630.99;2208302;80;27631;-59
2022/10/31 00:22:46;;;;;;;47.65;29.95;;;;;;;8.49;79.39;100638.66;2231042;79;29888;-61
2022/10/31 00:25:48;;;;;;;53.30;32.40;;;;;;;8.47;79.42;100635.58;2247337;79;31066;-59
2022/10/31 00:28:50;;;;;;;49.42;30.82;;;;;;;8.44;79.41;100631.23;2247818;79;33076;-59
2022/10/31 00:31:53;;;;;;;52.78;31.82;;;;;;;8.42;79.45;100641.09;2231319;79;29321;-59
2022/10/31 00:34:55;;;;;;;48.75;31.55;;;;;;;8.40;79.48;100638.08;2230752;79;27671;-59
2022/10/31 00:37:56;;;;;;;46.80;31.05;;;;;;;8.36;79.46;100646.19;2230663;79;28688;-59
2022/10/31 00:40:58;;;;;;;48.70;32.20;;;;;;;8.33;79.50;100638.28;2230518;79;30964;-60
2022/10/31 00:43:59;;;;;;;48.00;31.42;;;;;;;8.32;79.54;100645.02;2230956;79;34184;-58
2022/10/31 00:47:00;;;;;;;49.53;31.80;;;;;;;8.30;79.56;100645.05;2230624;79;29923;-59
2022/10/31 00:50:03;;;;;;;50.70;31.57;;;;;;;8.28;79.62;100644.23;2230827;79;27659;-59
2022/10/31 00:53:04;;;;;;;49.33;31.90;;;;;;;8.26;79.57;100637.22;2204592;79;29828;-59
2022/10/31 00:56:07;;;;;;;48.28;32.08;;;;;;;8.23;79.61;100638.20;2191946;80;31414;-59
2022/10/31 00:59:08;;;;;;;46.85;31.68;;;;;;;8.21;79.62;100637.38;2191757;80;33912;-59
2022/10/31 01:02:10;;;;;;;49.70;30.57;;;;;;;8.18;79.61;100635.70;2191525;80;30734;-58
2022/10/31 01:05:13;;;;;;;47.43;30.32;;;;;;;8.16;79.67;100637.99;2192036;80;28309;-59
2022/10/31 01:08:15;;;;;;;45.63;30.72;;;;;;;8.13;79.64;100637.64;2191480;80;29912;-58
2022/10/31 01:11:22;;;;;;;44.00;30.27;;;;;;;8.12;79.77;100646.58;2191596;81;30714;-58
2022/10/31 01:14:24;;;;;;;45.67;31.68;;;;;;;8.11;79.79;100641.30;2191296;80;35103;-59
2022/10/31 01:17:25;;;;;;;51.30;29.95;;;;;;;8.09;79.86;100644.48;2199341;80;29704;-58
2022/10/31 01:20:26;;;;;;;44.93;30.00;;;;;;;8.08;79.91;100645.41;2207847;80;27587;-59
2022/10/31 01:23:28;;;;;;;41.00;27.22;;;;;;;8.06;79.98;100640.98;2243507;79;29346;-58
2022/10/31 01:26:32;;;;;;;43.90;26.37;;;;;;;8.05;79.98;100645.91;2230606;79;31098;-58
2022/10/31 01:29:33;;;;;;;39.13;27.00;;;;;;;8.03;79.98;100647.75;2230730;79;33043;-58
2022/10/31 01:32:35;;;;;;;40.12;26.50;;;;;;;8.01;80.00;100645.59;2230621;79;30549;-58
2022/10/31 01:35:36;;;;;;;40.00;27.25;;;;;;;8.01;80.08;100650.94;2217602;79;27684;-58
2022/10/31 01:38:37;;;;;;;38.40;26.77;;;;;;;8.00;80.08;100642.52;2230767;79;29057;-58
2022/10/31 01:41:46;;;;;;;38.70;26.17;;;;;;;7.96;80.04;100640.01;2230913;79;31389;-58
2022/10/31 01:44:56;;;;;;;43.23;27.00;;;;;;;7.93;80.02;100644.99;2230809;79;32927;-58
2022/10/31 01:47:57;;;;;;;38.48;26.75;;;;;;;7.91;80.13;100642.83;2229659;79;29330;-58
2022/10/31 01:50:59;;;;;;;39.18;26.30;;;;;;;7.89;80.15;100645.53;2228672;79;28231;-59
2022/10/31 01:54:07;;;;;;;41.20;25.43;;;;;;;7.88;80.17;100643.78;2191823;80;28722;-58
2022/10/31 01:57:11;;;;;;;44.35;25.97;;;;;;;7.87;80.15;100650.05;2191702;80;31048;-58
2022/10/31 02:00:14;;;;;;;39.00;24.90;;;;;;;7.87;80.19;100653.19;2191437;81;33382;-58
2022/10/31 02:03:16;;;;;;;40.12;24.77;;;;;;;7.84;80.25;100651.95;2191807;80;29050;-58
2022/10/31 02:06:29;;;;;;;39.92;25.50;;;;;;;7.84;80.30;100655.95;2191421;81;27710;-60
2022/10/31 02:09:34;;;;;;;40.03;24.98;;;;;;;7.82;80.35;100652.45;2179175;81;28780;-59
2022/10/31 02:12:36;;;;;;;36.17;23.32;;;;;;;7.80;80.32;100655.19;2191639;80;31832;-58
2022/10/31 02:15:38;;;;;;;39.95;23.35;;;;;;;7.78;80.39;100652.16;2191646;80;34079;-58
2022/10/31 02:18:40;;;;;;;37.45;23.67;;;;;;;7.77;80.35;100655.75;2186811;80;30500;-58
2022/10/31 02:22:11;;;;;;;36.20;24.90;;;;;;;7.73;80.34;100658.52;2196866;80;27916;-58
2022/10/31 02:25:39;;;;;;;38.95;25.52;;;;;;;7.69;80.35;100654.19;2222655;79;29099;-59
2022/10/31 02:28:55;;;;;;;35.92;24.00;;;;;;;7.70;80.42;100659.05;2136167;83;31207;-59
2022/10/31 02:32:21;;;;;;;38.13;25.70;;;;;;;7.67;80.36;100660.03;2131180;83;34326;-59
2022/10/31 02:35:55;;;;;;;39.18;26.15;;;;;;;7.66;80.44;100659.62;2130983;83;30132;-60
2022/10/31 02:39:29;;;;;;;44.53;26.68;;;;;;;7.63;80.45;100657.52;2126060;83;27787;-59
2022/10/31 02:43:00;;;;;;;40.48;25.05;;;;;;;7.60;80.49;100666.02;2125863;83;28656;-60
2022/10/31 02:46:13;;;;;;;40.85;25.80;;;;;;;7.58;80.42;100667.00;2125425;83;32245;-59
2022/10/31 02:49:28;;;;;;;36.83;25.35;;;;;;;7.56;80.50;100671.03;2090326;85;33039;-59
2022/10/31 02:52:31;;;;;;;;;;;;;;;7.53;80.54;100661.78;2101475;83;29731;-59
2022/10/31 02:55:38;;;;;;;37.93;24.30;;;;;;;7.51;80.55;100659.66;2123972;83;27735;-59
2022/10/31 02:58:45;;;;;;;39.48;26.20;;;;;;;7.47;80.56;100666.00;2124407;83;29037;-59
2022/10/31 03:02:24;;;;;;;38.53;25.32;;;;;;;7.46;80.55;100665.58;2116926;83;31130;-59
2022/10/31 03:06:07;;;;;;;39.15;25.35;;;;;;;7.44;80.52;100666.09;2151534;80;33745;-58
2022/10/31 03:09:25;;;;;;;44.35;25.65;;;;;;;7.42;80.58;100667.48;2201772;80;29351;-58
2022/10/31 03:12:40;;;;;;;37.95;24.60;;;;;;;7.40;80.59;100665.31;2201548;80;27590;-59
2022/10/31 03:15:51;;;;;;;25.17;18.00;;;;;;;7.37;80.61;100673.40;2202060;80;29858;-59
2022/10/31 03:18:58;;;;;;;38.50;24.55;;;;;;;7.35;80.67;100677.90;2236929;79;31030;-59
2022/10/31 03:22:07;;;;;;;41.02;25.40;;;;;;;7.33;80.61;100680.20;2237499;79;34136;-58
2022/10/31 03:25:09;;;;;;;37.50;24.67;;;;;;;7.32;80.65;100683.79;2237765;79;29447;-59
2022/10/31 03:28:13;;;;;;;37.75;26.23;;;;;;;7.29;80.66;100686.95;2251003;79;27631;-59
2022/10/31 03:31:17;;;;;;;43.55;27.25;;;;;;;7.29;80.71;100686.06;2250836;79;29302;-59
2022/10/31 03:34:20;;;;;;;40.23;25.60;;;;;;;7.28;80.72;100688.34;2215974;79;31007;-58
2022/10/31 03:37:23;;;;;;;41.33;26.23;;;;;;;7.26;80.76;100687.52;2211096;80;33760;-58
2022/10/31 03:40:27;;;;;;;39.50;25.48;;;;;;;7.24;80.78;100690.69;2210744;80;29744;-59
2022/10/31 03:43:33;;;;;;;43.33;26.13;;;;;;;7.23;80.75;100695.13;2211341;80;27619;-59
2022/10/31 03:46:34;;;;;;;42.38;25.48;;;;;;;7.22;80.77;100697.37;2193947;79;29497;-58
2022/10/31 03:49:36;;;;;;;47.83;25.45;;;;;;;7.20;80.71;100699.20;2250411;79;32276;-59
2022/10/31 03:52:52;;;;;;;34.10;24.75;;;;;;;7.18;80.69;100693.52;2250347;79;33868;-59
2022/10/31 03:55:57;;;;;;;;;;;;;;;7.14;80.73;100705.59;2253265;79;29798;-60
2022/10/31 03:59:27;;;;;;;45.70;29.17;;;;;;;7.11;80.76;100699.04;2250583;79;27649;-59
2022/10/31 04:02:31;;;;;;;40.63;27.27;;;;;;;7.08;80.84;100699.13;2250532;79;29129;-58
2022/10/31 04:05:33;;;;;;;48.50;28.83;;;;;;;7.07;80.89;100704.48;2250742;79;31045;-58
2022/10/31 04:08:41;;;;;;;51.80;27.70;;;;;;;7.06;80.98;100708.05;2250716;79;34095;-60
2022/10/31 04:11:47;;;;;;;40.52;27.50;;;;;;;7.05;80.95;100706.30;2249447;79;29410;-60
2022/10/31 04:14:50;;;;;;;46.77;28.92;;;;;;;7.03;80.93;100702.84;2249835;79;27651;-59
2022/10/31 04:17:55;;;;;;;42.85;27.70;;;;;;;7.00;80.91;100702.45;2221563;79;29073;-59
2022/10/31 04:21:07;;;;;;;34.10;21.37;;;;;;;6.99;80.92;100707.36;2208073;80;31057;-59
2022/10/31 04:24:09;;;;;;;43.52;26.82;;;;;;;6.96;80.88;100707.00;2207840;80;33404;-63
2022/10/31 04:27:11;;;;;;;39.73;27.15;;;;;;;6.92;80.82;100702.66;2207623;80;29412;-61
2022/10/31 04:30:13;;;;;;;42.13;25.65;;;;;;;6.90;80.79;100708.48;2207865;80;27718;-59
2022/10/31 04:33:16;;;;;;;37.75;25.95;;;;;;;6.89;80.82;100715.20;2208025;80;29956;-64
2022/10/31 04:36:17;;;;;;;46.45;27.15;;;;;;;6.87;80.82;100715.70;2207710;80;31064;-59
2022/10/31 04:39:19;;;;;;;46.63;27.87;;;;;;;6.84;80.83;100712.20;2207970;80;34175;-58
2022/10/31 04:42:20;;;;;;;44.03;27.75;;;;;;;6.83;80.87;100710.45;2207757;80;30096;-58
2022/10/31 04:45:21;;;;;;;44.73;29.35;;;;;;;6.81;80.88;100712.28;2208416;80;27691;-58
2022/10/31 04:48:23;;;;;;;45.73;29.37;;;;;;;6.79;80.87;100709.25;2242582;79;28997;-58
2022/10/31 04:51:25;;;;;;;51.30;29.42;;;;;;;6.78;80.94;100711.06;2231058;79;31389;-58
2022/10/31 04:54:26;;;;;;;51.15;30.72;;;;;;;6.77;81.00;100709.75;2230908;79;32991;-59
2022/10/31 04:57:28;;;;;;;50.08;31.37;;;;;;;6.77;81.07;100712.41;2230669;79;30593;-58
2022/10/31 05:00:30;;;;;;;49.85;30.10;;;;;;;6.75;81.00;100717.79;2230061;79;27659;-58
2022/10/31 05:03:31;;;;;;;44.73;29.72;;;;;;;6.75;81.01;100719.56;2231299;79;29016;-59
2022/10/31 05:06:32;;;;;;;46.23;29.15;;;;;;;6.72;80.98;100717.87;2230457;79;31045;-59
2022/10/31 05:09:34;;;;;;;50.23;30.08;;;;;;;6.70;81.00;100721.02;2230607;79;33125;-59
2022/10/31 05:12:35;;;;;;;47.83;30.57;;;;;;;6.70;81.08;100721.02;2224139;79;28994;-59
2022/10/31 05:15:38;;;;;;;46.02;29.40;;;;;;;6.69;81.14;100726.82;2222473;79;27604;-59
2022/10/31 05:18:39;;;;;;;46.23;30.25;;;;;;;6.68;81.13;100724.18;2231779;79;29052;-59
2022/10/31 05:21:40;;;;;;;53.70;31.37;;;;;;;6.66;81.14;100725.56;2232585;79;32328;-58
2022/10/31 05:24:41;;;;;;;47.43;30.97;;;;;;;6.63;81.13;100725.64;2233694;79;34149;-61
2022/10/31 05:27:45;;;;;;;44.50;30.43;;;;;;;6.64;81.13;100728.72;2233658;79;29316;-60
2022/10/31 05:30:47;;;;;;;48.23;30.95;;;;;;;6.62;81.19;100733.21;2233816;79;27698;-61
2022/10/31 05:33:48;;;;;;;43.92;29.75;;;;;;;6.61;81.14;100734.12;2233699;79;29806;-60
2022/10/31 05:36:49;;;;;;;44.67;29.30;;;;;;;6.59;81.20;100737.28;2233968;79;31548;-61
2022/10/31 05:39:51;;;;;;;43.38;28.83;;;;;;;6.60;81.22;100734.17;2233163;79;33004;-62
2022/10/31 05:42:54;;;;;;;51.85;30.12;;;;;;;6.59;81.21;100731.09;2233734;79;29682;-61
2022/10/31 05:45:56;;;;;;;44.05;30.10;;;;;;;6.59;81.26;100735.09;2234048;79;27686;-61
2022/10/31 05:48:57;;;;;;;45.58;29.80;;;;;;;6.58;81.33;100738.19;2233702;79;28650;-61
2022/10/31 05:51:59;;;;;;;43.08;29.52;;;;;;;6.59;81.29;100733.75;2226737;79;31562;-61
2022/10/31 05:55:00;;;;;;;43.30;30.43;;;;;;;6.58;81.30;100740.85;2194314;81;33010;-61
2022/10/31 05:58:01;;;;;;;44.77;30.52;;;;;;;6.58;81.34;100739.52;2168289;81;29783;-61
2022/10/31 06:01:03;;;;;;;44.77;32.25;;;;;;;6.59;81.38;100740.41;2194573;81;27656;-62
2022/10/31 06:04:04;;;;;;;46.75;30.25;;;;;;;6.60;81.42;100746.16;2194253;81;28772;-61
2022/10/31 06:07:05;;;;;;;46.53;34.25;;;;;;;6.61;81.47;100740.78;2194357;81;32170;-61
2022/10/31 06:10:09;;;;;;;47.88;33.02;;;;;;;6.64;81.53;100742.03;2194203;81;33464;-61
2022/10/31 06:13:10;;;;;;;50.30;33.55;;;;;;;6.67;81.65;100743.29;2194332;81;29426;-61
2022/10/31 06:16:11;;;;;;;49.05;33.50;;;;;;;6.71;81.69;100745.84;2207329;79;27637;-61
2022/10/31 06:19:12;;;;;;;49.67;33.48;;;;;;;6.75;81.80;100744.86;2207469;79;28687;-61
2022/10/31 06:22:14;;;;;;;52.10;36.15;;;;;;;6.80;81.88;100752.28;2183968;80;32245;-62
2022/10/31 06:25:15;;;;;;;53.78;34.53;;;;;;;6.84;82.01;100758.80;2183603;81;33047;-61
2022/10/31 06:28:17;;;;;;;51.33;34.85;;;;;;;6.90;82.12;100755.57;2183977;80;29378;-61
2022/10/31 06:31:18;;;;;;;49.98;34.90;;;;;;;6.96;82.15;100760.71;2183899;80;27675;-60
2022/10/31 06:34:19;;;;;;;49.23;33.80;;;;;;;7.01;82.21;100757.95;2183943;80;28678;-60
2022/10/31 06:37:21;;;;;;;58.23;34.53;;;;;;;7.08;82.32;100762.17;2183712;80;31061;-59
2022/10/31 06:40:22;;;;;;;50.50;32.55;;;;;;;7.14;82.38;100765.53;2183681;81;34215;-59
2022/10/31 06:43:24;;;;;;;44.42;32.33;;;;;;;7.22;82.51;100766.66;2183933;80;29713;-59
2022/10/31 06:46:25;;;;;;;55.40;36.28;;;;;;;7.29;82.63;100765.58;2169897;80;27622;-59
2022/10/31 06:49:26;;;;;;;46.45;32.48;;;;;;;7.39;82.71;100763.97;2146185;82;29575;-60
2022/10/31 06:52:28;;;;;;;47.75;32.15;;;;;;;7.49;82.80;100769.91;2146194;83;31685;-60
2022/10/31 06:55:30;;;;;;;50.12;31.70;;;;;;;7.59;82.96;100778.92;2146066;82;34282;-59
2022/10/31 06:58:31;;;;;;;50.50;32.42;;;;;;;7.70;82.92;100777.72;2146879;82;29328;-59
2022/10/31 07:01:33;;;;;;;47.83;32.23;;;;;;;7.80;83.00;100780.55;2147069;82;27610;-60
2022/10/31 07:04:34;;;;;;;46.42;32.73;;;;;;;7.91;83.20;100781.08;2146364;82;28641;-59
2022/10/31 07:07:35;;;;;;;51.55;33.02;;;;;;;8.06;83.24;100784.19;2146154;82;31235;-59
2022/10/31 07:10:39;;;;;;;45.30;31.17;;;;;;;8.20;83.54;100789.95;2146317;82;34050;-59
2022/10/31 07:13:40;;;;;;;48.80;31.48;;;;;;;8.39;83.75;100794.70;2146168;83;29473;-60
2022/10/31 07:16:41;;;;;;;45.67;30.77;;;;;;;8.59;84.01;100792.77;2168478;81;27551;-60
2022/10/31 07:19:43;;;;;;;45.58;30.55;;;;;;;8.81;84.19;100786.67;2212082;79;29237;-60
2022/10/31 07:22:44;;;;;;;52.23;34.35;;;;;;;9.05;84.29;100785.42;2233203;79;31629;-60
2022/10/31 07:25:46;;;;;;;46.58;34.33;;;;;;;9.27;84.34;100791.72;2233213;79;34223;-60
2022/10/31 07:28:48;;;;;;;50.43;34.45;;;;;;;9.53;84.35;100791.69;2233475;79;30507;-60
2022/10/31 07:31:49;;;;;;;53.83;34.23;;;;;;;9.77;84.40;100789.88;2233373;79;27649;-61
2022/10/31 07:34:52;;;;;;;49.65;32.15;;;;;;;10.03;84.54;100788.02;2233667;79;29059;-61
2022/10/31 07:37:53;;;;;;;45.70;29.82;;;;;;;10.28;84.65;100793.26;2233557;79;31006;-61
2022/10/31 07:40:54;;;;;;;46.42;27.90;;;;;;;10.55;84.77;100790.41;2233023;79;34277;-61
2022/10/31 07:43:55;;;;;;;45.03;24.10;;;;;;;10.82;84.78;100793.32;2233509;79;29750;-62
2022/10/31 07:46:57;;;;;;;45.65;21.57;;;;;;;11.07;84.74;100788.66;2208116;79;27663;-64
2022/10/31 07:49:58;;;;;;;47.10;22.20;;;;;;;11.33;84.59;100789.30;2212078;79;29391;-63
2022/10/31 07:53:10;;;;;;;36.35;19.87;;;;;;;11.58;84.54;100792.22;2210635;80;31109;-63
2022/10/31 07:56:10;;;;;;;34.78;20.45;;;;;;;11.84;84.46;100790.98;2210659;80;34277;-62
2022/10/31 07:59:13;;;;;;;35.50;21.70;;;;;;;12.12;84.29;100796.89;2211074;80;29699;-61
2022/10/31 08:02:15;;;;;;;37.10;19.80;;;;;;;12.38;84.10;100799.65;2211163;80;27660;-63
2022/10/31 08:05:16;;;;;;;36.40;20.08;;;;;;;12.64;83.72;100800.19;2211108;80;29418;-60
2022/10/31 08:08:19;;;;;;;42.62;21.05;;;;;;;12.89;83.42;100790.40;2210612;80;32361;-60
2022/10/31 08:11:21;;;;;;;41.90;20.27;;;;;;;13.13;83.30;100790.55;2210864;80;33823;-60
2022/10/31 08:14:29;;;;;;;36.00;18.12;;;;;;;13.37;83.06;100787.02;2210558;80;30575;-65
2022/10/31 08:17:35;;;;;;;34.13;18.50;;;;;;;13.58;82.90;100788.17;2217235;79;27490;-63
2022/10/31 08:20:37;;;;;;;31.30;16.93;;;;;;;13.74;82.48;100789.06;2250565;78;28733;-62
2022/10/31 08:23:38;;;;;;;25.35;16.80;;;;;;;13.89;81.99;100792.75;2250638;79;31254;-61
2022/10/31 08:26:40;;;;;;;29.23;17.17;;;;;;;14.01;81.65;100789.86;2251023;79;33004;-61
2022/10/31 08:29:42;;;;;;;24.00;16.32;;;;;;;14.14;81.65;100798.12;2250716;79;29737;-62
2022/10/31 08:32:44;;;;;;;27.35;14.98;;;;;;;14.38;81.14;100801.23;2250686;79;27678;-62
2022/10/31 08:35:45;;;;;;;35.23;15.10;;;;;;;14.38;81.14;100801.23;2250728;79;28779;-61
2022/10/31 08:38:48;;;;;;;33.05;15.23;;;;;;;14.50;80.92;100800.98;2250576;79;32254;-62
2022/10/31 08:41:50;;;;;;;32.13;15.85;;;;;;;14.63;80.56;100805.19;2250773;79;33667;-61
2022/10/31 08:44:51;;;;;;;27.22;13.88;;;;;;;14.70;80.31;100794.94;2251185;79;29668;-62
2022/10/31 08:48:01;;;;;;;28.32;14.07;;;;;;;14.86;79.89;100809.25;2235768;79;27718;-62
2022/10/31 08:51:03;;;;;;;25.12;14.18;;;;;;;14.99;79.92;100810.74;2210867;80;29120;-61
2022/10/31 08:54:05;;;;;;;23.80;13.85;;;;;;;15.11;79.68;100809.14;2211181;80;31073;-60
2022/10/31 08:57:06;;;;;;;22.07;12.45;;;;;;;15.23;79.19;100801.25;2211092;80;32954;-60
2022/10/31 09:00:09;;;;;;;25.77;13.68;;;;;;;15.30;78.96;100800.78;2210787;80;28386;-61
2022/10/31 09:03:23;;;;;;;28.17;13.22;;;;;;;15.42;78.81;100797.80;2211231;80;27607;-60
2022/10/31 09:06:26;;;;;;;23.18;12.88;;;;;;;15.52;78.30;100799.45;2211135;80;29891;-61
2022/10/31 09:09:29;;;;;;;20.95;12.30;;;;;;;15.64;78.23;100805.89;2211158;80;32211;-60
2022/10/31 09:12:30;;;;;;;24.45;11.80;;;;;;;15.76;78.12;100804.25;2211056;80;33008;-60
2022/10/31 09:15:38;;;;;;;17.75;11.45;;;;;;;15.86;77.75;100800.05;2210742;80;30677;-60
2022/10/31 09:18:39;;;;;;;21.57;11.12;;;;;;;15.95;77.09;100803.50;2234973;79;27647;-60
2022/10/31 09:21:41;;;;;;;20.52;10.45;;;;;;;16.07;76.88;100801.85;2250379;79;29706;-61
2022/10/31 09:24:42;;;;;;;19.02;9.08;;;;;;;16.19;76.55;100801.55;2250609;79;31127;-60
2022/10/31 09:27:44;;;;;;;34.27;10.45;;;;;;;16.30;76.33;100799.46;2250878;79;32423;-60
2022/10/31 09:30:48;;;;;;;16.05;9.40;;;;;;;16.39;75.95;100800.22;2250946;79;30067;-60
2022/10/31 09:33:53;;;;;;;18.92;9.58;;;;;;;16.48;75.45;100799.21;2251165;79;27673;-60
2022/10/31 09:36:55;;;;;;;17.25;9.03;;;;;;;16.57;75.42;100795.91;2251416;79;28647;-61
2022/10/31 09:39:58;;;;;;;17.42;9.25;;;;;;;16.67;75.31;100803.78;2250895;79;30035;-61
2022/10/31 09:43:39;;;;;;;13.93;8.60;;;;;;;16.75;74.98;100801.91;2250862;79;33010;-61
2022/10/31 09:46:56;;;;;;;15.43;9.15;;;;;;;16.84;74.83;100804.00;2250767;79;30162;-60
2022/10/31 09:50:26;;;;;;;14.35;8.25;;;;;;;16.92;74.42;100799.42;2230036;79;27698;-60
2022/10/31 09:53:38;;;;;;;17.60;8.50;;;;;;;16.98;73.95;100796.81;2250655;79;29362;-61
2022/10/31 09:56:40;;;;;;;11.85;7.12;;;;;;;17.05;73.80;100798.60;2251023;79;30424;-62
2022/10/31 09:59:44;;;;;;;17.65;8.00;;;;;;;17.11;73.43;100799.05;2250471;79;34187;-61
2022/10/31 10:03:10;;;;;;;19.87;8.58;;;;;;;17.18;73.67;100791.36;2251341;79;30101;-61
2022/10/31 10:06:27;;;;;;;20.23;8.28;;;;;;;17.26;73.40;100797.59;2155419;82;27728;-61
2022/10/31 10:09:29;;;;;;;12.37;7.35;;;;;;;17.33;72.97;100802.97;2175118;81;29466;-61
2022/10/31 10:12:43;;;;;;;15.85;7.35;;;;;;;17.41;72.82;100799.72;2155442;82;31104;-61
2022/10/31 10:16:32;;;;;;;18.25;7.62;;;;;;;17.46;72.87;100805.19;2158006;81;33056;-67
2022/10/31 10:20:16;;;;;;;15.50;6.90;;;;;;;17.54;72.68;100802.44;2136455;82;29771;-64
2022/10/31 10:23:35;;;;;;;19.20;7.83;;;;;;;17.61;72.59;100796.47;2131680;83;27782;-65
2022/10/31 10:26:42;;;;;;;15.72;7.03;;;;;;;17.70;72.30;100793.59;2135874;83;30063;-63
2022/10/31 10:30:13;;;;;;;9.93;6.60;;;;;;;17.75;71.90;100794.61;2136196;83;31390;-62
2022/10/31 10:33:25;;;;;;;13.15;7.08;;;;;;;17.79;71.72;100794.73;2112735;84;32978;-61
2022/10/31 10:36:34;;;;;;;14.98;7.37;;;;;;;17.84;71.53;100787.66;2113047;84;29336;-62
2022/10/31 10:39:43;;;;;;;15.15;7.25;;;;;;;17.88;71.34;100783.72;2112630;83;27780;-63
2022/10/31 10:49:52;;;;;;;16.93;6.55;;;;;;;18.02;70.73;100785.47;2183861;81;34279;-64
2022/10/31 10:53:35;;;;;;;15.95;7.17;;;;;;;18.06;70.69;100778.84;2146072;82;29394;-64
2022/10/31 10:56:54;;;;;;;18.00;6.55;;;;;;;18.10;70.25;100776.30;2146452;82;27915;-65
2022/10/31 11:00:05;;;;;;;10.55;7.17;;;;;;;18.16;70.22;100778.53;2154911;81;29845;-72
2022/10/31 11:03:08;;;;;;;14.63;6.55;;;;;;;18.20;70.00;100770.55;2188417;81;31004;-65
2022/10/31 11:06:25;;;;;;;13.38;6.72;;;;;;;18.24;69.73;100764.91;2172400;81;32575;-70
2022/10/31 11:09:27;;;;;;;10.08;6.45;;;;;;;18.27;69.50;100768.75;2152814;82;29475;-67
2022/10/31 11:12:32;;;;;;;15.85;6.47;;;;;;;18.31;69.35;100774.30;2153874;81;27670;-63
2022/10/31 11:15:57;;;;;;;15.70;6.30;;;;;;;18.35;69.37;100768.55;2115009;84;28266;-63
2022/10/31 11:19:10;;;;;;;23.65;7.17;;;;;;;18.38;68.93;100765.58;2200585;80;31109;-69
2022/10/31 11:22:17;;;;;;;11.12;5.80;;;;;;;18.42;68.95;100766.23;2202214;79;33144;-67
2022/10/31 11:25:26;;;;;;;9.58;6.22;;;;;;;18.46;68.96;100765.00;2207802;80;29369;-66
2022/10/31 11:28:30;;;;;;;14.07;5.55;;;;;;;18.51;69.05;100763.32;2245746;79;27724;-68
2022/10/31 11:31:34;;;;;;;15.25;6.60;;;;;;;18.57;68.84;100757.41;2247304;79;29554;-66
2022/10/31 11:34:41;;;;;;;16.02;6.00;;;;;;;18.60;68.84;100751.75;2225550;79;31079;-67
2022/10/31 11:37:45;;;;;;;9.23;5.85;;;;;;;18.64;68.62;100751.90;2250288;79;33752;-67
2022/10/31 11:40:58;;;;;;;12.50;6.20;;;;;;;18.70;68.60;100749.20;2249805;79;29280;-66
2022/10/31 11:44:07;;;;;;;12.43;6.55;;;;;;;18.74;68.41;100747.11;2247143;79;27767;-67
2022/10/31 11:47:15;;;;;;;13.28;7.30;;;;;;;18.78;68.33;100746.74;2248797;79;29609;-67
2022/10/31 11:50:27;;;;;;;16.30;6.80;;;;;;;18.82;68.26;100741.97;2250382;79;31170;-65
2022/10/31 11:53:33;;;;;;;21.05;6.37;;;;;;;18.86;68.00;100736.68;2249141;79;34992;-65
2022/10/31 11:56:40;;;;;;;11.90;6.17;;;;;;;18.88;67.71;100737.39;2225938;79;29335;-67
2022/10/31 11:59:47;;;;;;;17.52;7.00;;;;;;;18.90;67.80;100732.72;2250142;79;28147;-65
2022/10/31 12:02:49;;;;;;;12.88;5.80;;;;;;;18.93;67.68;100735.20;2249216;79;30027;-66
2022/10/31 12:06:05;;;;;;;16.52;6.62;;;;;;;18.98;67.47;100733.50;2250267;79;31833;-68
2022/10/31 12:09:22;;;;;;;15.25;5.70;;;;;;;19.00;67.25;100735.61;2250747;79;32958;-66
2022/10/31 12:12:59;;;;;;;13.45;6.05;;;;;;;19.03;67.42;100735.88;2250634;79;30119;-65
2022/10/31 12:16:27;;;;;;;16.00;6.30;;;;;;;19.06;67.21;100732.42;2250044;79;27992;-69
2022/10/31 12:19:55;;;;;;;17.70;6.30;;;;;;;19.09;66.88;100733.55;2248957;79;29368;-65
2022/10/31 12:23:08;;;;;;;10.98;6.10;;;;;;;19.12;66.69;100737.35;2220517;79;32266;-65
2022/10/31 12:26:23;;;;;;;12.40;5.92;;;;;;;19.16;66.92;100732.56;2210202;80;33772;-68
2022/10/31 12:30:03;;;;;;;16.12;6.53;;;;;;;19.19;66.82;100730.97;2210766;79;28711;-68
2022/10/31 12:33:36;;;;;;;12.70;5.83;;;;;;;19.22;66.53;100732.06;2210595;80;27692;-67
2022/10/31 12:36:49;;;;;;;12.95;5.22;;;;;;;19.25;66.35;100730.97;2210450;80;29664;-65
2022/10/31 12:40:27;;;;;;;12.55;6.05;;;;;;;19.28;66.33;100730.23;2209291;80;32247;-64
2022/10/31 12:43:46;;;;;;;12.53;5.72;;;;;;;19.32;66.07;100731.34;2210697;80;33486;-67
2022/10/31 12:47:13;;;;;;;20.25;7.60;;;;;;;19.33;65.82;100729.00;2211055;80;29326;-63
2022/10/31 12:50:57;;;;;;;13.60;6.10;;;;;;;19.34;65.97;100726.66;2210839;80;28089;-64
2022/10/31 12:54:21;;;;;;;9.38;6.33;;;;;;;19.35;65.87;100728.39;2250621;79;28690;-63
2022/10/31 12:57:48;;;;;;;13.18;6.42;;;;;;;19.33;65.81;100723.06;2250235;79;31034;-65
2022/10/31 13:00:56;;;;;;;18.55;6.08;;;;;;;19.32;65.83;100719.97;2249200;79;33190;-66
2022/10/31 13:04:18;;;;;;;13.78;6.55;;;;;;;19.31;65.79;100714.16;2250352;79;29370;-65
2022/10/31 13:07:29;;;;;;;15.10;6.58;;;;;;;19.28;65.79;100716.64;2109737;84;27807;-65
2022/10/31 13:10:42;;;;;;;13.48;6.35;;;;;;;19.27;65.86;100717.63;2105607;84;29499;-65
2022/10/31 13:14:09;;;;;;;14.07;6.55;;;;;;;19.24;65.64;100712.44;2110088;84;31742;-66
2022/10/31 13:17:33;;;;;;;14.47;6.37;;;;;;;19.22;65.64;100712.20;2109212;84;32218;-66
2022/10/31 13:20:42;;;;;;;12.70;7.10;;;;;;;19.20;65.69;100710.09;2100383;83;30207;-65
2022/10/31 13:23:44;;;;;;;14.80;5.62;;;;;;;19.18;65.64;100705.27;2038867;87;27746;-67
2022/10/31 13:26:54;;;;;;;14.38;6.30;;;;;;;19.16;65.69;100702.69;2038780;87;29467;-68
2022/10/31 13:30:13;;;;;;;15.40;5.80;;;;;;;19.14;65.66;100703.30;2038758;87;31030;-66
2022/10/31 13:33:28;;;;;;;16.23;6.60;;;;;;;19.13;65.70;100710.57;2038881;87;34514;-66
2022/10/31 13:36:41;;;;;;;14.70;7.40;;;;;;;19.11;65.63;100704.90;2038619;87;30521;-66
2022/10/31 13:39:54;;;;;;;11.63;6.55;;;;;;;19.11;65.67;100699.47;2039307;87;27775;-66
2022/10/31 13:43:29;;;;;;;14.03;6.12;;;;;;;19.12;65.66;100699.84;2043937;83;30064;-65
2022/10/31 13:46:38;;;;;;;16.50;6.47;;;;;;;19.09;65.72;100692.81;2066024;86;31159;-65
2022/10/31 13:49:39;;;;;;;17.40;6.70;;;;;;;19.08;65.75;100686.12;2063804;86;33534;-65
2022/10/31 13:52:41;;;;;;;14.87;6.10;;;;;;;19.05;65.56;100685.89;2094692;83;29417;-65
2022/10/31 13:56:15;;;;;;;27.15;8.98;;;;;;;19.04;65.72;100683.28;2109683;83;27791;-64
2022/10/31 13:59:21;;;;;;;18.87;6.12;;;;;;;19.02;65.64;100679.84;2105392;84;29102;-65
2022/10/31 14:02:33;;;;;;;19.87;7.47;;;;;;;18.98;65.70;100685.98;2105609;84;31777;-64
2022/10/31 14:05:35;;;;;;;18.85;7.75;;;;;;;18.94;65.82;100684.50;2104413;83;34113;-65
2022/10/31 14:08:48;;;;;;;19.75;7.70;;;;;;;18.91;65.81;100688.80;2105239;84;29705;-66
2022/10/31 14:11:50;;;;;;;18.32;8.03;;;;;;;18.87;65.81;100684.59;2105576;84;27701;-66
2022/10/31 14:14:56;;;;;;;15.93;6.40;;;;;;;18.82;65.87;100679.02;2105794;84;29018;-67
2022/10/31 14:18:05;;;;;;;20.43;7.30;;;;;;;18.80;65.97;100684.21;2121356;83;31075;-66
2022/10/31 14:21:29;;;;;;;16.48;7.00;;;;;;;18.75;65.96;100684.58;2144868;80;33877;-67
2022/10/31 14:24:34;;;;;;;19.55;7.10;;;;;;;18.70;65.96;100679.99;2192699;79;29770;-66
2022/10/31 14:27:46;;;;;;;15.00;7.12;;;;;;;18.64;66.07;100675.03;2146462;82;27708;-66
2022/10/31 14:30:57;;;;;;;18.12;7.53;;;;;;;18.57;66.16;100676.00;2151652;82;28676;-66